createdAt,value
2022-10-05T00:01:32.008Z,83.10
2022-10-05T00:04:34.195Z,83.10
2022-10-05T00:07:36.441Z,83.00
2022-10-05T00:10:43.583Z,83.00
2022-10-05T00:13:47.200Z,83.10
2022-10-05T00:16:50.356Z,83.00
2022-10-05T00:19:54.290Z,83.00
2022-10-05T00:22:58.669Z,82.90
2022-10-05T00:26:27.069Z,83.00
2022-10-05T00:29:29.226Z,83.10
2022-10-05T00:32:33.217Z,82.90
2022-10-05T00:35:36.417Z,82.80
2022-10-05T00:38:39.129Z,82.90
2022-10-05T00:42:04.522Z,82.90
2022-10-05T00:45:31.438Z,83.00
2022-10-05T00:48:54.535Z,82.90
2022-10-05T00:52:20.450Z,82.90
2022-10-05T00:55:43.603Z,82.80
2022-10-05T00:59:03.954Z,82.80
2022-10-05T01:02:29.279Z,82.80
2022-10-05T01:05:37.412Z,82.80
2022-10-05T01:09:04.220Z,82.80
2022-10-05T01:12:40.666Z,82.80
2022-10-05T01:15:54.598Z,82.80
2022-10-05T01:18:59.688Z,82.80
2022-10-05T01:22:29.904Z,82.80
2022-10-05T01:25:56.010Z,82.90
2022-10-05T01:29:22.911Z,82.80
2022-10-05T01:32:39.998Z,82.90
2022-10-05T01:35:51.391Z,82.80
2022-10-05T01:39:14.224Z,82.80
2022-10-05T01:42:31.687Z,82.90
2022-10-05T01:46:00.634Z,82.80
2022-10-05T01:49:13.784Z,82.80
2022-10-05T01:52:35.328Z,82.80
2022-10-05T01:55:57.096Z,82.80
2022-10-05T01:59:24.162Z,82.80
2022-10-05T02:02:29.045Z,82.80
2022-10-05T02:06:00.710Z,82.80
2022-10-05T02:09:25.399Z,82.80
2022-10-05T02:12:32.835Z,82.90
2022-10-05T02:15:44.207Z,82.80
2022-10-05T02:18:53.046Z,82.90
2022-10-05T02:22:03.510Z,82.90
2022-10-05T02:25:13.812Z,82.90
2022-10-05T02:28:23.630Z,82.90
2022-10-05T02:31:45.964Z,82.90
2022-10-05T02:34:48.269Z,82.90
2022-10-05T02:38:14.783Z,82.90
2022-10-05T02:41:42.358Z,83.00
2022-10-05T02:52:19.064Z,83.00
2022-10-05T02:55:27.092Z,83.10
2022-10-05T02:58:37.463Z,83.00
2022-10-05T03:01:54.618Z,83.10
2022-10-05T03:05:11.809Z,83.10
2022-10-05T03:08:20.145Z,83.10
2022-10-05T03:11:48.571Z,83.10
2022-10-05T03:15:12.886Z,83.10
2022-10-05T03:18:45.766Z,83.10
2022-10-05T03:22:29.876Z,83.10
2022-10-05T03:25:51.394Z,83.10
2022-10-05T03:29:15.168Z,83.00
2022-10-05T03:32:39.657Z,83.80
2022-10-05T03:36:17.687Z,83.10
2022-10-05T03:39:35.707Z,83.10
2022-10-05T03:42:57.031Z,83.00
2022-10-05T03:46:30.942Z,83.00
2022-10-05T03:49:42.215Z,83.10
2022-10-05T03:53:25.005Z,83.00
2022-10-05T03:56:33.567Z,83.10
2022-10-05T03:59:58.922Z,83.00
2022-10-05T04:03:17.445Z,83.10
2022-10-05T04:06:29.538Z,83.70
2022-10-05T04:09:43.091Z,83.00
2022-10-05T04:12:51.350Z,83.00
2022-10-05T04:16:12.631Z,83.00
2022-10-05T04:19:23.611Z,83.00
2022-10-05T04:22:40.768Z,83.00
2022-10-05T04:25:56.129Z,83.10
2022-10-05T04:32:31.387Z,83.00
2022-10-05T04:35:39.443Z,83.00
2022-10-05T04:39:23.939Z,83.00
2022-10-05T04:42:40.348Z,83.00
2022-10-05T04:49:54.129Z,83.20
2022-10-05T04:53:30.652Z,83.10
2022-10-05T05:04:25.339Z,83.10
2022-10-05T05:07:59.438Z,83.10
2022-10-05T05:11:27.148Z,83.20
2022-10-05T05:14:32.444Z,83.10
2022-10-05T05:17:52.667Z,83.10
2022-10-05T05:21:26.204Z,83.10
2022-10-05T05:24:36.498Z,83.10
2022-10-05T05:28:01.423Z,83.10
2022-10-05T05:31:15.715Z,83.20
2022-10-05T05:34:48.488Z,83.10
2022-10-05T05:37:53.806Z,83.10
2022-10-05T05:41:29.930Z,83.10
2022-10-05T05:44:41.597Z,83.20
2022-10-05T05:47:52.186Z,83.10
2022-10-05T05:51:05.077Z,83.10
2022-10-05T05:54:16.550Z,83.00
2022-10-05T05:57:34.979Z,83.00
2022-10-05T06:00:49.311Z,83.10
2022-10-05T06:04:14.079Z,83.00
2022-10-05T06:07:21.187Z,83.10
2022-10-05T06:10:26.549Z,83.10
2022-10-05T06:13:40.066Z,83.10
2022-10-05T06:16:47.505Z,83.10
2022-10-05T06:20:02.505Z,83.10
2022-10-05T06:23:18.651Z,83.20
2022-10-05T06:26:42.948Z,83.20
2022-10-05T06:29:48.343Z,83.20
2022-10-05T06:32:50.574Z,83.20
2022-10-05T06:36:12.802Z,83.30
2022-10-05T06:39:42.069Z,83.30
2022-10-05T06:42:50.259Z,83.40
2022-10-05T06:46:20.870Z,83.40
2022-10-05T06:50:16.863Z,83.40
2022-10-05T06:53:47.969Z,83.50
2022-10-05T06:57:36.677Z,83.60
2022-10-05T07:00:52.718Z,83.70
2022-10-05T07:04:14.006Z,83.70
2022-10-05T07:07:30.683Z,83.70
2022-10-05T07:11:14.279Z,83.80
2022-10-05T07:14:31.430Z,83.80
2022-10-05T07:17:39.998Z,83.80
2022-10-05T07:20:54.760Z,84.00
2022-10-05T07:24:00.002Z,84.00
2022-10-05T07:27:05.266Z,84.10
2022-10-05T07:30:11.638Z,84.20
2022-10-05T07:33:26.681Z,84.20
2022-10-05T07:37:07.498Z,85.00
2022-10-05T07:40:29.210Z,84.40
2022-10-05T07:44:12.541Z,84.40
2022-10-05T07:47:31.150Z,84.50
2022-10-05T07:51:09.046Z,84.50
2022-10-05T07:54:26.324Z,84.50
2022-10-05T07:58:06.714Z,84.70
2022-10-05T08:01:26.359Z,84.70
2022-10-05T08:04:45.021Z,84.80
2022-10-05T08:07:50.599Z,84.70
2022-10-05T08:11:02.070Z,84.90
2022-10-05T08:14:16.703Z,85.00
2022-10-05T08:17:29.870Z,85.10
2022-10-05T08:20:55.182Z,85.20
2022-10-05T08:24:37.976Z,85.30
2022-10-05T08:28:20.366Z,85.30
2022-10-05T08:31:41.912Z,85.30
2022-10-05T08:35:17.951Z,85.30
2022-10-05T08:38:27.186Z,85.40
2022-10-05T08:42:01.599Z,85.60
2022-10-05T08:45:25.604Z,86.50
2022-10-05T08:48:52.427Z,87.70
2022-10-05T08:52:09.523Z,88.30
2022-10-05T08:55:36.329Z,88.90
2022-10-05T08:59:02.525Z,89.30
2022-10-05T09:02:28.406Z,89.60
2022-10-05T09:05:58.545Z,89.70
2022-10-05T09:09:09.523Z,89.70
2022-10-05T09:12:11.750Z,89.60
2022-10-05T09:16:07.583Z,90.20
2022-10-05T09:19:33.697Z,90.10
2022-10-05T09:23:02.358Z,90.30
2022-10-05T09:26:23.446Z,90.50
2022-10-05T09:29:59.596Z,90.40
2022-10-05T09:33:29.939Z,90.40
2022-10-05T09:36:41.175Z,90.40
2022-10-05T09:40:13.422Z,90.40
2022-10-05T09:43:34.333Z,90.30
2022-10-05T09:46:58.580Z,90.30
2022-10-05T09:50:06.618Z,90.20
2022-10-05T09:53:20.833Z,90.50
2022-10-05T09:56:53.669Z,90.30
2022-10-05T10:00:22.496Z,90.10
2022-10-05T10:04:01.935Z,90.00
2022-10-05T10:07:21.263Z,90.00
2022-10-05T10:10:36.697Z,90.00
2022-10-05T10:13:53.604Z,90.10
2022-10-05T10:17:27.267Z,90.10
2022-10-05T10:20:58.928Z,90.00
2022-10-05T10:24:10.934Z,90.10
2022-10-05T10:27:50.288Z,90.10
2022-10-05T10:31:02.135Z,90.20
2022-10-05T10:34:20.614Z,90.10
2022-10-05T10:37:42.518Z,90.40
2022-10-05T10:41:12.171Z,90.10
2022-10-05T10:44:47.307Z,90.00
2022-10-05T10:48:11.238Z,89.80
2022-10-05T10:51:22.426Z,89.60
2022-10-05T10:54:41.988Z,89.60
2022-10-05T10:57:57.600Z,89.40
2022-10-05T11:01:39.691Z,89.10
2022-10-05T11:05:01.769Z,89.10
2022-10-05T11:08:28.799Z,88.80
2022-10-05T11:12:01.012Z,88.70
2022-10-05T11:15:28.998Z,88.70
2022-10-05T11:18:40.334Z,88.70
2022-10-05T11:22:16.459Z,88.70
2022-10-05T11:25:54.572Z,88.50
2022-10-05T11:29:31.422Z,88.60
2022-10-05T11:32:52.128Z,88.50
2022-10-05T11:36:42.270Z,88.50
2022-10-05T11:40:01.367Z,88.40
2022-10-05T11:43:54.680Z,88.30
2022-10-05T11:47:26.395Z,88.30
2022-10-05T11:51:03.763Z,88.30
2022-10-05T11:54:38.324Z,88.40
2022-10-05T11:57:49.415Z,88.30
2022-10-05T12:00:51.510Z,88.00
2022-10-05T12:04:22.306Z,88.10
2022-10-05T12:07:42.752Z,88.00
2022-10-05T12:10:50.777Z,88.10
2022-10-05T12:14:03.767Z,87.90
2022-10-05T12:17:41.390Z,87.80
2022-10-05T12:20:48.930Z,87.80
2022-10-05T12:23:54.898Z,87.60
2022-10-05T12:27:12.084Z,87.60
2022-10-05T12:30:34.387Z,87.70
2022-10-05T12:33:42.490Z,87.80
2022-10-05T12:37:03.905Z,87.80
2022-10-05T12:40:21.805Z,87.60
2022-10-05T12:43:45.080Z,87.60
2022-10-05T12:46:55.874Z,87.60
2022-10-05T12:50:24.051Z,87.60
2022-10-05T12:54:16.136Z,87.50
2022-10-05T12:57:23.407Z,87.30
2022-10-05T13:00:28.489Z,87.00
2022-10-05T13:04:17.976Z,86.90
2022-10-05T13:07:28.840Z,86.90
2022-10-05T13:10:35.704Z,86.70
2022-10-05T13:13:40.759Z,86.50
2022-10-05T13:17:15.784Z,86.30
2022-10-05T13:20:37.259Z,86.30
2022-10-05T13:23:57.495Z,86.10
2022-10-05T13:27:08.663Z,86.00
2022-10-05T13:30:19.627Z,85.70
2022-10-05T13:33:27.160Z,85.50
2022-10-05T13:36:50.464Z,85.50
2022-10-05T13:40:10.556Z,85.50
2022-10-05T13:43:18.500Z,85.50
2022-10-05T13:46:38.431Z,85.50
2022-10-05T13:49:57.983Z,85.30
2022-10-05T13:53:16.305Z,85.20
2022-10-05T13:56:37.569Z,84.90
2022-10-05T13:59:49.838Z,84.60
2022-10-05T14:02:57.066Z,84.90
2022-10-05T14:06:26.518Z,84.30
2022-10-05T14:09:35.219Z,84.30
2022-10-05T14:12:43.816Z,84.40
2022-10-05T14:16:26.523Z,84.30
2022-10-05T14:19:41.264Z,84.40
2022-10-05T14:22:45.595Z,83.90
2022-10-05T14:25:53.898Z,84.80
2022-10-05T14:28:59.026Z,83.70
2022-10-05T14:32:23.972Z,83.70
2022-10-05T14:35:31.203Z,83.80
2022-10-05T14:38:50.668Z,83.70
2022-10-05T14:41:53.176Z,83.70
2022-10-05T14:45:14.092Z,83.60
2022-10-05T14:48:17.383Z,83.60
2022-10-05T14:51:31.890Z,83.30
2022-10-05T14:54:41.379Z,83.40
2022-10-05T14:57:56.308Z,83.30
2022-10-05T15:04:40.831Z,83.10
2022-10-05T15:07:49.487Z,83.00
2022-10-05T15:11:03.125Z,83.00
2022-10-05T15:14:20.593Z,83.00
2022-10-05T15:17:30.337Z,82.60
2022-10-05T15:20:50.251Z,82.60
2022-10-05T15:23:57.600Z,82.80
2022-10-05T15:27:04.148Z,82.60
2022-10-05T15:30:11.657Z,82.80
2022-10-05T15:33:50.789Z,82.70
2022-10-05T15:40:38.614Z,82.90
2022-10-05T15:43:59.413Z,83.50
2022-10-05T15:47:09.122Z,83.80
2022-10-05T15:50:14.076Z,83.90
2022-10-05T15:53:26.765Z,84.00
2022-10-05T15:56:38.698Z,84.20
2022-10-05T15:59:53.302Z,84.40
2022-10-05T16:03:13.444Z,84.40
2022-10-05T16:06:57.651Z,84.60
2022-10-05T16:10:22.444Z,84.60
2022-10-05T16:14:06.170Z,84.70
2022-10-05T16:17:29.461Z,84.80
2022-10-05T16:20:35.793Z,85.00
2022-10-05T16:23:55.888Z,85.10
2022-10-05T16:27:03.395Z,85.30
2022-10-05T16:30:11.940Z,85.50
2022-10-05T16:36:58.856Z,85.80
2022-10-05T16:40:29.910Z,86.00
2022-10-05T16:43:41.595Z,86.30
2022-10-05T16:46:57.867Z,86.40
2022-10-05T16:50:04.213Z,86.40
2022-10-05T16:53:33.203Z,86.40
2022-10-05T17:00:54.679Z,86.30
2022-10-05T17:04:05.998Z,86.20
2022-10-05T17:07:14.291Z,86.10
2022-10-05T17:10:19.192Z,86.10
2022-10-05T17:13:24.234Z,86.00
2022-10-05T17:16:35.468Z,86.00
2022-10-05T17:20:10.138Z,86.00
2022-10-05T17:23:34.378Z,85.90
2022-10-05T17:26:57.586Z,85.90
2022-10-05T17:30:48.447Z,85.90
2022-10-05T17:34:15.450Z,85.90
2022-10-05T17:41:01.166Z,85.80
2022-10-05T17:44:21.262Z,85.90
2022-10-05T17:48:03.310Z,85.90
2022-10-05T17:51:48.696Z,86.10
2022-10-05T17:58:31.523Z,86.20
2022-10-05T18:01:40.453Z,86.30
2022-10-05T18:04:51.083Z,86.20
2022-10-05T18:15:45.044Z,86.20
2022-10-05T18:18:56.598Z,86.20
2022-10-05T18:22:15.543Z,86.30
2022-10-05T18:25:42.959Z,86.30
2022-10-05T18:29:14.529Z,86.40
2022-10-05T18:32:32.546Z,86.40
2022-10-05T18:35:44.245Z,86.50
2022-10-05T18:39:03.145Z,86.50
2022-10-05T18:49:47.368Z,86.50
2022-10-05T18:52:52.299Z,86.70
2022-10-05T18:55:59.040Z,86.70
2022-10-05T18:59:32.212Z,86.90
2022-10-05T19:02:43.190Z,86.80
2022-10-05T19:06:04.492Z,86.80
2022-10-05T19:09:18.691Z,86.90
2022-10-05T19:12:20.894Z,86.90
2022-10-05T19:15:36.496Z,87.00
2022-10-05T19:18:41.595Z,87.00
2022-10-05T19:22:31.975Z,87.00
2022-10-05T19:25:50.433Z,87.10
2022-10-05T19:29:20.127Z,87.00
2022-10-05T19:32:40.537Z,87.00
2022-10-05T19:36:04.701Z,87.00
2022-10-05T19:39:28.742Z,87.00
2022-10-05T19:43:07.603Z,87.00
2022-10-05T19:46:19.048Z,87.10
2022-10-05T19:49:43.277Z,87.00
2022-10-05T19:52:49.793Z,86.90
2022-10-05T19:55:54.224Z,86.80
2022-10-05T19:58:57.653Z,86.80
2022-10-05T20:02:00.373Z,86.80
2022-10-05T20:05:07.274Z,86.60
2022-10-05T20:08:17.720Z,87.30
2022-10-05T20:11:27.146Z,86.50
2022-10-05T20:14:33.755Z,86.50
2022-10-05T20:17:54.687Z,86.40
2022-10-05T20:20:57.034Z,86.40
2022-10-05T20:24:11.279Z,86.30
2022-10-05T20:27:51.999Z,86.30
2022-10-05T20:30:54.972Z,86.30
2022-10-05T20:33:59.562Z,86.20
2022-10-05T20:37:01.672Z,86.10
2022-10-05T20:40:05.249Z,86.10
2022-10-05T20:43:08.303Z,86.10
2022-10-05T20:46:10.414Z,86.10
2022-10-05T20:49:12.694Z,86.00
2022-10-05T20:52:15.839Z,86.10
2022-10-05T20:55:17.991Z,86.00
2022-10-05T20:58:20.203Z,86.00
2022-10-05T21:01:27.091Z,85.90
2022-10-05T21:04:40.819Z,85.90
2022-10-05T21:07:44.462Z,85.90
2022-10-05T21:10:47.157Z,85.90
2022-10-05T21:13:49.867Z,85.70
2022-10-05T21:16:52.674Z,85.70
2022-10-05T21:19:54.972Z,85.70
2022-10-05T21:22:57.126Z,85.70
2022-10-05T21:26:01.092Z,85.60
2022-10-05T21:29:07.790Z,85.60
2022-10-05T21:32:12.438Z,85.60
2022-10-05T21:35:14.896Z,85.50
2022-10-05T21:38:17.230Z,85.60
2022-10-05T21:41:20.091Z,85.50
2022-10-05T21:44:22.616Z,85.50
2022-10-05T21:47:26.213Z,85.50
2022-10-05T21:50:28.526Z,85.50
2022-10-05T21:53:33.952Z,85.50
2022-10-05T21:56:39.573Z,85.50
2022-10-05T21:59:42.857Z,85.50
2022-10-05T22:02:44.969Z,85.50
2022-10-05T22:05:47.345Z,85.40
2022-10-05T22:08:49.642Z,85.40
2022-10-05T22:11:51.893Z,85.40
2022-10-05T22:14:54.601Z,85.30
2022-10-05T22:17:59.889Z,85.30
2022-10-05T22:21:02.070Z,85.30
2022-10-05T22:24:04.730Z,85.30
2022-10-05T22:27:07.142Z,85.20
2022-10-05T22:30:09.756Z,85.20
2022-10-05T22:33:13.397Z,85.20
2022-10-05T22:36:16.311Z,85.20
2022-10-05T22:39:18.744Z,85.10
2022-10-05T22:42:21.392Z,85.00
2022-10-05T22:45:23.866Z,85.00
2022-10-05T22:48:26.491Z,85.40
2022-10-05T22:51:29.061Z,85.00
2022-10-05T22:54:34.309Z,85.10
2022-10-05T22:57:43.005Z,84.90
2022-10-05T23:00:58.213Z,84.90
2022-10-05T23:04:01.220Z,84.90
2022-10-05T23:07:03.330Z,84.90
2022-10-05T23:10:07.340Z,84.80
2022-10-05T23:13:09.476Z,84.90
2022-10-05T23:16:15.537Z,84.80
2022-10-05T23:19:17.830Z,84.80
2022-10-05T23:22:21.549Z,84.70
2022-10-05T23:25:25.662Z,84.70
2022-10-05T23:28:29.459Z,84.70
2022-10-05T23:31:33.558Z,84.60
2022-10-05T23:34:35.839Z,84.60
2022-10-05T23:37:43.272Z,84.60
2022-10-05T23:40:47.522Z,84.60
2022-10-05T23:43:49.840Z,84.50
2022-10-05T23:46:51.902Z,84.50
2022-10-05T23:49:55.651Z,84.50
2022-10-05T23:52:57.762Z,84.40
2022-10-05T23:56:00.186Z,84.40
2022-10-05T23:59:03.158Z,84.40
